Latest Weather Observations for Moomba Airport

IDS60801

Issued at 3:51 am CDT Tuesday 21 January 2020 (issued every 10 minutes, with the page automatically refreshed every 10 minutes)

About weather observations | Map of weather stations | Latest weather observations for SA | Other Formats
Station Details ID: 017123 Name: MOOMBA AIRPORT Lat: -28.10 Lon: 140.20 Height: 37.8 m
Data from the previous 72 hours. | See also: Recent months at Moomba Airport
Date/Time
CDT
Temp
°C
App
Temp
°C
Dew
Point
°C
Rel
Hum
%
Delta-T
°C
Wind Press
QNH
hPa
Press
MSL
hPa
Rain since
9am
mm
Dir  Spd
km/h
Gust
km/h
Spd
kts
Gust
kts
21/03:30am 22.0 19.3 5.8 35 8.2 W 9 13 5 7 1008.7 1008.4 0.0
21/03:00am 21.7 18.4 4.7 33 8.4 WSW 11 13 6 7 1008.8 1008.5 0.0
21/02:30am 22.6 20.2 5.1 32 8.7 SSW 7 9 4 5 1009.1 1008.8 0.0
21/02:00am 22.4 19.5 2.5 27 9.4 SW 7 11 4 6 1009.2 1008.9 0.0
21/01:30am 23.0 19.2 1.9 25 9.9 WSW 11 15 6 8 1009.4 1009.1 0.0
21/01:00am 22.6 19.3 -0.2 22 10.3 SW 7 9 4 5 1009.7 1009.4 0.0
21/12:30am 23.2 19.6 0.3 22 10.5 SW 9 11 5 6 1009.9 1009.6 0.0
21/12:00am 24.2 20.2 0.5 21 11.0 W 11 13 6 7 1009.9 1009.6 0.0
 
Date/Time
CDT
Temp
°C
App
Temp
°C
Dew
Point
°C
Rel
Hum
%
Delta-T
°C
Wind Press
QNH
hPa
Press
MSL
hPa
Rain since
9am
mm
Dir  Spd
km/h
Gust
km/h
Spd
kts
Gust
kts
20/11:30pm 24.5 20.8 0.1 20 11.2 WNW 9 11 5 6 1009.8 1009.5 0.0
20/11:00pm 24.8 21.7 0.3 20 11.3 W 6 7 3 4 1009.5 1009.2 0.0
20/10:30pm 25.7 22.7 1.1 20 11.6 SW 6 7 3 4 1009.3 1009.0 0.0
20/10:00pm 25.7 22.3 -0.4 18 12.0 SW 7 9 4 5 1008.9 1008.6 0.0
20/09:30pm 26.8 23.6 0.5 18 12.4 SW 7 7 4 4 1008.7 1008.4 0.0
20/09:00pm 27.9 24.8 1.4 18 12.8 S 7 9 4 5 1008.5 1008.2 0.0
20/08:30pm 28.8 24.9 1.3 17 13.4 SSW 11 15 6 8 1008.3 1008.0 0.0
20/08:00pm 29.7 25.4 1.2 16 13.9 SSW 13 17 7 9 1008.1 1007.8 0.0
20/07:30pm 30.2 25.6 1.6 16 14.1 SSW 15 22 8 12 1007.9 1007.6 0.0
20/07:00pm 30.6 25.0 1.0 15 14.5 SSW 20 28 11 15 1007.8 1007.5 0.0
20/06:30pm 31.0 25.4 1.4 15 14.6 SW 20 30 11 16 1007.4 1007.1 0.0
20/06:00pm 31.2 25.0 -0.5 13 15.2 WSW 22 32 12 17 1007.3 1007.0 0.0
20/05:30pm 30.9 24.4 0.3 14 14.8 SW 24 35 13 19 1007.0 1006.7 0.0
20/05:00pm 30.6 25.0 0.1 14 14.7 SSW 19 33 10 18 1007.2 1006.9 0.0
20/04:30pm 30.7 25.8 2.0 16 14.3 SW 17 30 9 16 1007.4 1007.1 0.0
20/04:00pm 30.3 24.0 1.7 16 14.1 SW 24 37 13 20 1007.7 1007.4 0.0
20/03:30pm 30.8 25.9 2.1 16 14.3 SSW 17 32 9 17 1008.0 1007.7 0.0
20/03:00pm 30.4 26.4 2.6 17 14.0 WSW 13 32 7 17 1008.3 1008.0 0.0
20/02:30pm 29.4 24.2 3.4 19 13.2 SW 20 33 11 18 1008.5 1008.2 0.0
20/02:00pm 29.1 24.2 3.9 20 12.8 SW 19 28 10 15 1008.8 1008.5 0.0
20/01:30pm 28.8 23.7 4.3 21 12.5 SSW 20 32 11 17 1009.3 1009.0 0.0
20/01:00pm 28.1 23.2 5.0 23 11.9 SW 20 30 11 16 1009.5 1009.2 0.0
20/12:30pm 27.3 22.6 5.0 24 11.4 SSW 19 30 10 16 1009.8 1009.5 0.0
20/12:00pm 26.7 22.1 5.6 26 10.9 SSW 19 30 10 16 1009.9 1009.6 0.0
20/11:30am 25.9 20.8 6.0 28 10.3 SSW 22 32 12 17 1009.9 1009.6 0.0
20/11:00am 25.2 20.6 6.4 30 9.8 SSW 20 35 11 19 1010.2 1009.9 0.0
20/10:30am 24.1 18.7 6.4 32 9.1 S 24 32 13 17 1010.2 1009.9 0.0
20/10:00am 23.3 18.1 5.7 32 8.9 S 22 32 12 17 1010.3 1010.0 0.0
20/09:30am 23.2 17.7 6.1 33 8.7 SSE 24 35 13 19 1010.1 1009.8 0.0
20/09:00am 22.1 16.6 5.9 35 8.2 S 24 32 13 17 1010.2 1009.9 0.0
20/08:30am 21.5 15.3 6.2 37 7.7 S 28 35 15 19 1009.8 1009.5 0.0
20/08:00am 20.8 15.0 6.4 39 7.3 S 26 35 14 19 1009.4 1009.1 0.0
20/07:30am 20.3 15.7 6.3 40 7.0 S 20 26 11 14 1009.2 1008.9 0.0
20/07:00am 20.0 15.3 6.0 40 7.0 S 20 28 11 15 1008.9 1008.6 0.0
20/06:30am 20.2 16.5 6.2 40 7.0 S 15 22 8 12 1008.6 1008.3 0.0
20/06:00am 21.0 15.1 5.8 37 7.6 S 26 37 14 20 1008.2 1007.9 0.0
20/05:30am 21.1 17.5 6.6 39 7.4 S 15 20 8 11 1007.9 1007.6 0.0
20/05:00am 21.6 17.2 6.7 38 7.6 S 19 26 10 14 1007.7 1007.4 0.0
20/04:30am 22.3 17.9 6.5 36 8.1 S 19 32 10 17 1007.5 1007.2 0.0
20/04:00am 22.7 18.2 6.9 36 8.1 SSW 20 28 11 15 1007.2 1006.9 0.0
20/03:30am 22.9 19.3 6.6 35 8.4 SSW 15 20 8 11 1007.1 1006.8 0.0
20/03:00am 23.5 19.5 6.7 34 8.7 SSW 17 22 9 12 1007.1 1006.8 0.0
20/02:30am 23.9 19.0 6.7 33 8.9 SSW 22 30 12 16 1007.0 1006.7 0.0
20/02:00am 24.5 19.1 6.3 31 9.4 SW 24 32 13 17 1007.1 1006.8 0.0
20/01:30am 24.9 19.4 6.1 30 9.7 SW 24 32 13 17 1007.0 1006.7 0.0
20/01:00am 25.6 20.5 5.8 28 10.2 SW 22 30 12 16 1007.0 1006.7 0.0
20/12:30am 26.0 20.7 5.0 26 10.7 SW 22 28 12 15 1006.9 1006.6 0.0
20/12:00am 26.7 20.5 4.5 24 11.3 SW 26 32 14 17 1006.7 1006.4 0.0
 
Date/Time
CDT
Temp
°C
App
Temp
°C
Dew
Point
°C
Rel
Hum
%
Delta-T
°C
Wind Press
QNH
hPa
Press
MSL
hPa
Rain since
9am
mm
Dir  Spd
km/h
Gust
km/h
Spd
kts
Gust
kts
19/11:30pm 27.5 20.5 3.9 22 11.9 SW 30 35 16 19 1006.3 1006.0 0.0
19/11:04pm 28.1 21.4 3.7 21 12.3 SW 28 35 15 19 1006.1 1005.8 0.0
19/11:00pm 28.2 21.1 3.8 21 12.3 SW 30 37 16 20 1006.1 1005.8 0.0
19/10:37pm 28.9 21.6 4.4 21 12.5 SW 32 39 17 21 1005.9 1005.6 0.0
19/10:30pm 29.1 22.3 5.2 22 12.5 SW 30 39 16 21 1005.9 1005.6 0.0
19/10:00pm 29.9 23.6 5.9 22 12.7 SW 28 44 15 24 1005.4 1005.1 0.0
19/09:30pm 30.6 24.1 6.5 22 13.0 WSW 30 37 16 20 1005.0 1004.7 0.0
19/09:00pm 31.3 24.8 6.4 21 13.4 WSW 30 37 16 20 1004.6 1004.3 0.0
19/08:30pm 31.8 25.1 7.5 22 13.4 WSW 32 37 17 20 1004.0 1003.7 0.0
19/08:00pm 32.5 25.6 7.4 21 13.8 WSW 33 43 18 23 1003.6 1003.3 0.0
19/07:34pm 32.8 25.8 6.9 20 14.1 WSW 33 39 18 21 1003.2 1002.9 0.0
19/07:30pm 32.9 25.9 6.2 19 14.5 WSW 32 39 17 21 1003.2 1002.9 0.0
19/07:03pm 33.7 26.2 6.1 18 14.9 WSW 35 46 19 25 1002.7 1002.4 0.0
19/07:00pm 33.8 26.3 6.2 18 15.0 WSW 35 46 19 25 1002.7 1002.4 0.0
19/06:54pm 33.8 26.7 6.2 18 15.0 WSW 33 46 18 25 1002.5 1002.2 0.0
19/06:31pm 34.2 27.0 5.7 17 15.4 WSW 33 46 18 25 1002.3 1002.0 0.0
19/06:30pm 34.3 27.1 5.8 17 15.5 WSW 33 46 18 25 1002.2 1001.9 0.0
19/06:00pm 34.7 27.9 5.2 16 15.9 WSW 30 41 16 22 1002.0 1001.7 0.0
19/05:44pm 34.9 28.2 5.4 16 15.9 WSW 30 48 16 26 1001.9 1001.6 0.0
19/05:30pm 35.4 28.4 5.8 16 16.2 WSW 32 46 17 25 1002.1 1001.8 0.0
19/05:26pm 35.5 29.0 4.9 15 16.4 WSW 28 46 15 25 1002.0 1001.7 0.0
19/05:00pm 35.7 28.9 5.1 15 16.5 WSW 30 39 16 21 1002.0 1001.7 0.0
19/04:30pm 35.9 29.3 4.2 14 16.9 W 28 46 15 25 1002.0 1001.7 0.0
19/04:00pm 35.9 29.1 3.2 13 17.1 WSW 28 41 15 22 1002.4 1002.1 0.0
19/03:40pm 36.1 28.4 2.2 12 17.5 WSW 32 44 17 24 1002.5 1002.2 0.0
19/03:30pm 36.1 29.9 2.2 12 17.6 W 24 39 13 21 1002.4 1002.1 0.0
19/03:22pm 35.8 28.8 2.0 12 17.3 WSW 28 46 15 25 1002.6 1002.3 0.0
19/03:20pm 36.2 29.3 2.3 12 17.5 WSW 28 46 15 25 1002.6 1002.3 0.0
19/03:00pm 36.3 29.8 2.4 12 17.6 WSW 26 39 14 21 1002.8 1002.5 0.0
19/02:30pm 35.0 28.7 1.4 12 17.1 WSW 24 35 13 19 1003.3 1003.0 0.0
19/02:00pm 35.4 28.9 0.5 11 17.4 W 24 37 13 20 1003.7 1003.4 0.0
19/01:30pm 35.5 29.4 0.6 11 17.5 W 22 35 12 19 1004.0 1003.7 0.0
19/01:00pm 34.4 28.8 -0.3 11 17.0 WSW 19 30 10 16 1004.3 1004.0 0.0
19/12:30pm 34.1 28.0 0.7 12 16.7 WSW 22 32 12 17 1004.6 1004.3 0.0
19/12:00pm 34.5 30.2 1.0 12 16.8 SW 13 22 7 12 1004.9 1004.6 0.0
19/11:30am 33.1 27.5 -0.1 12 16.2 SW 19 32 10 17 1005.3 1005.0 0.0
19/11:00am 33.0 27.2 -1.4 11 16.4 SW 19 28 10 15 1005.7 1005.4 0.0
19/10:30am 32.1 26.6 -2.0 11 16.0 SW 17 28 9 15 1005.7 1005.4 0.0
19/10:00am 31.5 27.2 -1.3 12 15.5 SW 11 19 6 10 1005.9 1005.6 0.0
19/09:30am 30.0 26.0 -2.5 12 14.9 SW 9 11 5 6 1005.8 1005.5 0.0
19/09:00am 28.5 24.1 -2.6 13 14.1 SW 11 15 6 8 1005.7 1005.4 0.0
19/08:30am 27.1 22.3 -2.7 14 13.3 WSW 13 17 7 9 1005.7 1005.4 0.0
19/08:00am 25.4 21.3 -3.1 15 12.4 WSW 9 15 5 8 1005.5 1005.2 0.0
19/07:37am 25.0 20.1 -3.4 15 12.3 W 13 17 7 9 1005.5 1005.2 0.0
19/07:30am 25.0 20.5 -3.4 15 12.3 WSW 11 15 6 8 1005.3 1005.0 0.0
19/07:17am 24.7 20.9 -3.6 15 12.2 SW 7 7 4 4 1005.1 1004.8 0.0
19/07:00am 24.5 20.3 -3.8 15 12.1 WSW 9 11 5 6 1005.0 1004.7 0.0
19/06:30am 24.4 20.2 -3.9 15 12.1 WSW 9 9 5 5 1004.7 1004.4 0.0
19/06:00am 24.3 20.1 -4.0 15 12.1 WSW 9 11 5 6 1004.4 1004.1 0.0
19/05:30am 24.1 20.4 -4.1 15 12.0 SW 6 7 3 4 1004.1 1003.8 0.0
19/05:00am 24.6 20.8 -3.7 15 12.1 SSW 7 9 4 5 1003.9 1003.6 0.0
19/04:30am 24.4 20.8 -3.9 15 12.1 SSW 6 7 3 4 1003.8 1003.5 0.0
19/04:00am 24.7 20.0 -4.6 14 12.4 SW 11 19 6 10 1003.8 1003.5 0.0
19/03:30am 24.9 21.2 -4.4 14 12.5 SSW 6 7 3 4 1003.2 1002.9 0.0
19/03:00am 26.0 21.8 -3.5 14 12.9 S 9 13 5 7 1003.3 1003.0 0.0
19/02:30am 26.4 21.8 -4.2 13 13.3 S 11 15 6 8 1003.4 1003.1 0.0
19/02:00am 27.2 22.3 -3.6 13 13.5 S 13 19 7 10 1003.5 1003.2 0.0
19/01:30am 27.0 22.1 -3.7 13 13.5 S 13 15 7 8 1003.9 1003.6 0.0
19/01:00am 26.9 22.3 -3.8 13 13.4 S 11 13 6 7 1004.1 1003.8 0.0
19/12:30am 28.0 23.4 -4.0 12 14.1 S 11 15 6 8 1004.5 1004.2 0.0
19/12:00am 28.9 24.0 -3.3 12 14.5 S 13 17 7 9 1004.5 1004.2 0.0
 
Date/Time
CDT
Temp
°C
App
Temp
°C
Dew
Point
°C
Rel
Hum
%
Delta-T
°C
Wind Press
QNH
hPa
Press
MSL
hPa
Rain since
9am
mm
Dir  Spd
km/h
Gust
km/h
Spd
kts
Gust
kts
18/11:30pm 29.8 24.5 -3.8 11 15.1 S 15 17 8 9 1004.7 1004.4 0.0
18/11:00pm 30.5 25.2 -3.3 11 15.3 S 15 20 8 11 1004.6 1004.3 0.0
18/10:30pm 31.0 25.8 -2.9 11 15.6 S 15 22 8 12 1004.6 1004.3 0.0
18/10:00pm 31.3 25.6 -3.9 10 15.9 S 17 24 9 13 1004.4 1004.1 0.0
18/09:30pm 31.9 25.7 -3.5 10 16.2 S 20 24 11 13 1004.3 1004.0 0.0
18/09:00pm 32.2 26.0 -3.2 10 16.3 S 20 26 11 14 1004.1 1003.8 0.0
18/08:30pm 32.7 26.7 -2.9 10 16.6 S 19 24 10 13 1004.0 1003.7 0.0
18/08:00pm 33.1 27.2 -2.6 10 16.7 S 19 22 10 12 1003.8 1003.5 0.0
18/07:30pm 33.6 28.5 -2.2 10 17.0 S 15 20 8 11 1003.7 1003.4 0.0
18/07:00pm 33.7 27.8 -2.1 10 17.0 S 19 26 10 14 1003.4 1003.1 0.0
18/06:30pm 34.1 28.8 -3.2 9 17.5 SSW 15 22 8 12 1003.2 1002.9 0.0
18/06:00pm 34.7 29.1 -2.8 9 17.8 SSW 17 24 9 13 1002.9 1002.6 0.0
18/05:30pm 34.6 29.8 -2.9 9 17.7 S 13 22 7 12 1002.9 1002.6 0.0
18/05:00pm 35.1 29.5 -2.5 9 17.9 SSW 17 28 9 15 1003.1 1002.8 0.0
18/04:30pm 34.7 29.5 -2.8 9 17.7 SSW 15 28 8 15 1003.5 1003.2 0.0
18/04:00pm 35.2 30.4 -2.4 9 17.9 SSE 13 24 7 13 1003.5 1003.2 0.0
18/03:30pm 35.1 30.3 -2.5 9 17.9 WSW 13 19 7 10 1003.9 1003.6 0.0
18/03:00pm 35.3 30.5 -2.3 9 18.0 W 13 20 7 11 1004.2 1003.9 0.0
18/02:30pm 35.2 29.3 -1.0 10 17.7 S 20 28 11 15 1004.5 1004.2 0.0
18/02:00pm 34.9 29.9 -1.2 10 17.5 SW 15 22 8 12 1004.7 1004.4 0.0
18/01:30pm 34.4 30.7 -0.3 11 17.1 S 9 13 5 7 1005.4 1005.1 0.0
18/01:00pm 34.1 30.5 0.7 12 16.6 W 9 13 5 7 1006.0 1005.7 0.0
18/12:30pm 33.5 29.2 1.3 13 16.2 ESE 13 24 7 13 1006.3 1006.0 0.0
18/12:00pm 33.1 29.2 1.0 13 16.0 ESE 11 17 6 9 1006.6 1006.3 0.0
18/11:30am 32.0 27.5 2.1 15 15.1 ESE 15 22 8 12 1006.8 1006.5 0.0
18/11:00am 31.3 26.7 1.6 15 14.7 SE 15 28 8 15 1007.2 1006.9 0.0
18/10:30am 30.6 25.2 1.0 15 14.5 SE 19 28 10 15 1007.5 1007.2 0.0
18/10:00am 29.0 23.6 1.5 17 13.4 SE 19 26 10 14 1007.6 1007.3 0.0
18/09:30am 28.0 22.5 0.7 17 13.1 SE 19 26 10 14 1007.6 1007.3 0.0
18/09:00am 26.5 21.1 1.0 19 12.1 SE 19 24 10 13 1007.6 1007.3 0.0
18/08:30am 24.9 19.2 0.4 20 11.4 SE 20 24 11 13 1007.5 1007.2 0.0
18/08:00am 23.4 18.6 0.5 22 10.5 SSE 15 22 8 12 1007.2 1006.9 0.0
18/07:30am 21.9 17.1 0.4 24 9.8 S 15 19 8 10 1006.9 1006.6 0.0
18/07:00am 20.5 15.3 -0.2 25 9.2 S 17 20 9 11 1006.5 1006.2 0.0
18/06:30am 19.5 14.9 -1.0 25 8.9 S 13 15 7 8 1006.3 1006.0 0.0
18/06:00am 19.3 15.1 -1.2 25 8.8 SSW 11 15 6 8 1005.9 1005.6 0.0
18/05:30am 19.7 15.5 -0.9 25 9.0 SSW 11 13 6 7 1005.7 1005.4 0.0
18/05:00am 19.9 15.7 -1.2 24 9.1 SW 11 11 6 6 1005.5 1005.2 0.0
18/04:30am 21.4 17.2 -1.2 22 9.9 S 11 15 6 8 1005.4 1005.1 0.0
18/04:00am 22.3 17.8 -0.4 22 10.2 SSE 13 19 7 10 1005.2 1004.9 0.0

Other formats

Comma delimited format used in spreadsheet applications
http://www.bom.gov.au/fwo/IDS60801/IDS60801.95481.axf

JavaScript Object Notation format (JSON) in row-major order
http://www.bom.gov.au/fwo/IDS60801/IDS60801.95481.json

Data quality

Most of these data are generated automatically and are frequently updated. Quality checks on data are not normally performed. It is possible for incorrect values to appear. Refer to information at About Latest Weather Observations and please check the disclaimer before using these data.